createdAt,value
2023-01-10T00:00:39.596Z,94663.00
2023-01-10T00:01:39.513Z,94663.00
2023-01-10T00:02:39.610Z,94663.00
2023-01-10T00:03:39.427Z,94663.00
2023-01-10T00:04:39.577Z,94660.00
2023-01-10T00:05:39.339Z,94652.00
2023-01-10T00:55:35.023Z,94718.00
2023-01-10T00:56:35.963Z,94722.00
2023-01-10T00:57:35.942Z,94718.00
2023-01-10T00:58:35.943Z,94713.00
2023-01-10T00:59:35.899Z,94718.00
2023-01-10T01:00:35.874Z,94722.00
2023-01-10T01:01:36.031Z,94726.00
2023-01-10T01:02:35.894Z,94724.00
2023-01-10T01:03:35.795Z,94724.00
2023-01-10T01:04:35.778Z,94732.00
2023-01-10T01:05:35.759Z,94742.00
2023-01-10T01:06:35.746Z,94740.00
2023-01-10T01:07:35.716Z,94732.00
2023-01-10T01:08:35.684Z,94730.00
2023-01-10T01:09:35.663Z,94730.00
2023-01-10T01:10:35.633Z,94742.00
2023-01-10T01:11:35.649Z,94746.00
2023-01-10T01:12:35.616Z,94748.00
2023-01-10T01:13:35.567Z,94750.00
2023-01-10T01:14:35.534Z,94750.00
2023-01-10T01:15:35.549Z,94742.00
2023-01-10T01:16:35.470Z,94742.00
2023-01-10T01:17:35.446Z,94748.00
2023-01-10T01:18:35.420Z,94752.00
2023-01-10T01:19:35.377Z,94756.00
2023-01-10T01:20:35.343Z,94762.00
2023-01-10T01:21:35.303Z,94764.00
2023-01-10T01:22:35.275Z,94769.00
2023-01-10T01:23:35.241Z,94769.00
2023-01-10T01:24:35.218Z,94769.00
2023-01-10T01:25:35.179Z,94773.00
2023-01-10T01:26:35.155Z,94771.00
2023-01-10T01:27:35.185Z,94775.00
2023-01-10T01:28:35.128Z,94783.00
2023-01-10T01:29:42.969Z,94783.00
2023-01-10T01:30:35.106Z,94781.00
2023-01-10T01:31:35.047Z,94781.00
2023-01-10T01:32:35.039Z,94779.00
2023-01-10T01:33:35.030Z,94785.00
2023-01-10T01:34:35.002Z,94785.00
2023-01-10T01:35:34.958Z,94787.00
2023-01-10T01:36:34.923Z,94789.00
2023-01-10T01:37:34.888Z,94789.00
2023-01-10T01:38:34.858Z,94793.00
2023-01-10T01:39:34.836Z,94795.00
2023-01-10T01:40:34.811Z,94799.00
2023-01-10T01:41:34.776Z,94795.00
2023-01-10T01:42:34.749Z,94795.00
2023-01-10T01:43:34.745Z,94789.00
2023-01-10T01:44:34.690Z,94791.00
2023-01-10T01:45:34.691Z,94791.00
2023-01-10T01:46:34.707Z,94789.00
2023-01-10T01:47:34.617Z,94797.00
2023-01-10T01:48:34.614Z,94801.00
2023-01-10T01:49:34.579Z,94799.00
2023-01-10T01:50:34.570Z,94799.00
2023-01-10T01:51:34.537Z,94799.00
2023-01-10T01:52:34.500Z,94795.00
2023-01-10T01:53:34.479Z,94795.00
2023-01-10T01:54:34.461Z,94795.00
2023-01-10T01:55:34.481Z,94797.00
2023-01-10T01:56:34.420Z,94799.00
2023-01-10T01:57:34.368Z,94799.00
2023-01-10T01:58:34.344Z,94801.00
2023-01-10T01:59:34.349Z,94805.00
2023-01-10T02:00:34.320Z,94803.00
2023-01-10T02:01:34.377Z,94803.00
2023-01-10T02:02:34.243Z,94801.00
2023-01-10T02:03:34.213Z,94803.00
2023-01-10T02:04:34.184Z,94807.00
2023-01-10T02:05:34.163Z,94812.00
2023-01-10T02:06:34.141Z,94814.00
2023-01-10T02:07:34.104Z,94812.00
2023-01-10T02:08:34.081Z,94820.00
2023-01-10T02:09:34.053Z,94822.00
2023-01-10T02:10:34.018Z,94816.00
2023-01-10T02:11:33.994Z,94814.00
2023-01-10T02:12:33.980Z,94814.00
2023-01-10T02:13:33.932Z,94814.00
2023-01-10T02:14:33.892Z,94818.00
2023-01-10T02:15:33.891Z,94820.00
2023-01-10T02:16:33.851Z,94820.00
2023-01-10T02:17:33.817Z,94824.00
2023-01-10T02:18:33.789Z,94820.00
2023-01-10T02:19:33.766Z,94824.00
2023-01-10T02:20:33.750Z,94826.00
2023-01-10T02:21:33.730Z,94832.00
2023-01-10T02:22:33.711Z,94832.00
2023-01-10T02:23:33.699Z,94832.00
2023-01-10T02:24:33.670Z,94828.00
2023-01-10T02:25:33.654Z,94822.00
2023-01-10T02:26:33.640Z,94818.00
2023-01-10T02:27:33.617Z,94824.00
2023-01-10T02:28:33.609Z,94828.00
2023-01-10T02:29:33.587Z,94832.00
2023-01-10T02:30:33.566Z,94834.00
2023-01-10T02:31:33.683Z,94836.00
2023-01-10T02:32:43.864Z,94840.00
2023-01-10T02:33:33.492Z,94840.00
2023-01-10T02:34:33.496Z,94838.00
2023-01-10T02:35:33.446Z,94840.00
2023-01-10T02:36:33.440Z,94840.00
2023-01-10T02:37:33.411Z,94846.00
2023-01-10T02:38:33.391Z,94846.00
2023-01-10T02:39:33.376Z,94846.00
2023-01-10T02:40:33.356Z,94850.00
2023-01-10T02:41:33.339Z,94850.00
2023-01-10T02:42:33.308Z,94852.00
2023-01-10T02:43:33.281Z,94852.00
2023-01-10T02:44:33.266Z,94854.00
2023-01-10T02:45:33.241Z,94858.00
2023-01-10T02:46:33.256Z,94860.00
2023-01-10T02:47:33.212Z,94860.00
2023-01-10T02:48:33.164Z,94862.00
2023-01-10T02:49:33.145Z,94860.00
2023-01-10T02:50:33.140Z,94860.00
2023-01-10T02:51:33.111Z,94862.00
2023-01-10T02:52:33.070Z,94864.00
2023-01-10T02:53:33.044Z,94869.00
2023-01-10T02:54:33.021Z,94871.00
2023-01-10T02:55:33.000Z,94869.00
2023-01-10T02:56:32.967Z,94866.00
2023-01-10T02:57:32.943Z,94864.00
2023-01-10T02:58:32.917Z,94864.00
2023-01-10T02:59:32.891Z,94864.00
2023-01-10T03:00:32.862Z,94866.00
2023-01-10T03:01:32.973Z,94866.00
2023-01-10T03:02:32.813Z,94864.00
2023-01-10T03:03:32.816Z,94864.00
2023-01-10T03:04:32.822Z,94866.00
2023-01-10T03:05:32.739Z,94867.00
2023-01-10T03:06:32.731Z,94867.00
2023-01-10T03:07:32.688Z,94867.00
2023-01-10T03:08:32.657Z,94867.00
2023-01-10T03:09:34.383Z,94862.00
2023-01-10T03:10:32.599Z,94858.00
2023-01-10T03:11:32.567Z,94856.00
2023-01-10T03:12:32.536Z,94856.00
2023-01-10T03:13:32.518Z,94858.00
2023-01-10T03:14:32.511Z,94860.00
2023-01-10T03:15:32.480Z,94864.00
2023-01-10T03:16:32.467Z,94866.00
2023-01-10T03:17:32.426Z,94866.00
2023-01-10T03:18:32.395Z,94867.00
2023-01-10T03:19:32.388Z,94867.00
2023-01-10T03:20:32.336Z,94866.00
2023-01-10T03:21:32.306Z,94866.00
2023-01-10T03:22:32.279Z,94866.00
2023-01-10T03:23:32.244Z,94866.00
2023-01-10T03:24:32.220Z,94866.00
2023-01-10T03:25:32.177Z,94867.00
2023-01-10T03:26:32.145Z,94871.00
2023-01-10T03:27:32.124Z,94877.00
2023-01-10T03:28:32.104Z,94879.00
2023-01-10T03:29:32.067Z,94889.00
2023-01-10T03:30:32.039Z,94891.00
2023-01-10T03:31:32.120Z,94893.00
2023-01-10T03:32:32.001Z,94895.00
2023-01-10T03:33:31.973Z,94897.00
2023-01-10T03:34:31.984Z,94899.00
2023-01-10T03:35:31.948Z,94903.00
2023-01-10T03:36:31.902Z,94905.00
2023-01-10T03:37:31.875Z,94907.00
2023-01-10T03:38:31.851Z,94913.00
2023-01-10T03:39:31.845Z,94922.00
2023-01-10T03:40:31.823Z,94922.00
2023-01-10T03:41:31.792Z,94922.00
2023-01-10T03:42:31.771Z,94926.00
2023-01-10T03:43:31.744Z,94932.00
2023-01-10T03:44:31.717Z,94940.00
2023-01-10T03:45:31.694Z,94942.00
2023-01-10T03:46:31.765Z,94944.00
2023-01-10T03:47:31.628Z,94942.00
2023-01-10T03:48:31.618Z,94940.00
2023-01-10T03:49:31.591Z,94936.00
2023-01-10T03:50:31.564Z,94940.00
2023-01-10T03:51:31.583Z,94946.00
2023-01-10T03:52:31.523Z,94952.00
2023-01-10T03:53:31.503Z,94956.00
2023-01-10T03:54:31.488Z,94958.00
2023-01-10T03:55:31.460Z,94956.00
2023-01-10T03:56:31.437Z,94956.00
2023-01-10T03:57:31.423Z,94958.00
2023-01-10T03:58:31.398Z,94962.00
2023-01-10T03:59:31.373Z,94966.00
2023-01-10T04:00:31.364Z,94967.00
2023-01-10T04:01:31.451Z,94969.00
2023-01-10T04:02:31.339Z,94973.00
2023-01-10T04:03:31.282Z,94971.00
2023-01-10T04:04:31.256Z,94969.00
2023-01-10T04:05:31.248Z,94967.00
2023-01-10T04:06:31.230Z,94967.00
2023-01-10T04:07:31.229Z,94971.00
2023-01-10T04:08:31.187Z,94977.00
2023-01-10T04:09:31.179Z,94983.00
2023-01-10T04:10:31.142Z,94979.00
2023-01-10T04:11:31.124Z,94981.00
2023-01-10T04:12:31.107Z,94979.00
2023-01-10T04:13:31.096Z,94973.00
2023-01-10T04:14:31.067Z,94971.00
2023-01-10T04:15:31.029Z,94969.00
2023-01-10T04:16:31.070Z,94971.00
2023-01-10T04:17:31.006Z,94973.00
2023-01-10T04:18:31.020Z,94979.00
2023-01-10T04:19:30.970Z,94987.00
2023-01-10T04:20:30.969Z,94991.00
2023-01-10T04:21:30.940Z,94993.00
2023-01-10T04:22:30.915Z,94995.00
2023-01-10T04:23:30.929Z,94993.00
2023-01-10T04:24:30.865Z,94997.00
2023-01-10T04:25:31.662Z,94999.00
2023-01-10T04:26:30.804Z,95001.00
2023-01-10T04:27:30.776Z,95003.00
2023-01-10T04:28:30.755Z,95005.00
2023-01-10T04:29:30.738Z,95005.00
2023-01-10T04:30:30.717Z,95011.00
2023-01-10T04:31:30.814Z,95016.00
2023-01-10T04:32:30.664Z,95022.00
2023-01-10T04:33:30.638Z,95020.00
2023-01-10T04:34:30.616Z,95018.00
2023-01-10T04:35:30.605Z,95016.00
2023-01-10T04:36:30.591Z,95013.00
2023-01-10T04:37:30.567Z,95014.00
2023-01-10T04:38:30.547Z,95018.00
2023-01-10T04:39:30.543Z,95024.00
2023-01-10T04:40:30.491Z,95034.00
2023-01-10T04:41:30.468Z,95038.00
2023-01-10T04:42:30.452Z,95036.00
2023-01-10T04:43:30.441Z,95042.00
2023-01-10T04:44:30.421Z,95046.00
2023-01-10T04:45:30.430Z,95048.00
2023-01-10T04:46:30.359Z,95050.00
2023-01-10T04:47:30.341Z,95052.00
2023-01-10T04:48:30.304Z,95054.00
2023-01-10T04:49:30.285Z,95052.00
2023-01-10T04:50:30.265Z,95050.00
2023-01-10T04:51:30.245Z,95052.00
2023-01-10T04:52:30.222Z,95054.00
2023-01-10T04:53:30.192Z,95058.00
2023-01-10T04:54:30.173Z,95060.00
2023-01-10T04:55:30.165Z,95063.00
2023-01-10T04:56:30.119Z,95063.00
2023-01-10T04:57:30.089Z,95061.00
2023-01-10T04:58:30.056Z,95058.00
2023-01-10T04:59:30.023Z,95061.00
2023-01-10T05:00:30.002Z,95060.00
2023-01-10T05:01:30.061Z,95061.00
2023-01-10T05:02:30.102Z,95065.00
2023-01-10T05:03:29.927Z,95069.00
2023-01-10T05:04:29.896Z,95071.00
2023-01-10T05:05:29.862Z,95077.00
2023-01-10T05:06:29.836Z,95083.00
2023-01-10T05:07:29.806Z,95079.00
2023-01-10T05:08:29.778Z,95079.00
2023-01-10T05:09:29.754Z,95077.00
2023-01-10T05:10:29.736Z,95079.00
2023-01-10T05:11:29.735Z,95085.00
2023-01-10T05:12:29.684Z,95083.00
2023-01-10T05:13:29.665Z,95085.00
2023-01-10T05:14:29.651Z,95091.00
2023-01-10T05:15:29.613Z,95095.00
2023-01-10T05:16:29.654Z,95099.00
2023-01-10T05:17:29.578Z,95103.00
2023-01-10T05:18:29.556Z,95111.00
2023-01-10T05:19:29.562Z,95111.00
2023-01-10T05:20:29.510Z,95109.00
2023-01-10T05:21:29.498Z,95107.00
2023-01-10T05:22:29.469Z,95107.00
2023-01-10T05:23:29.474Z,95115.00
2023-01-10T05:24:29.433Z,95113.00
2023-01-10T05:25:29.398Z,95116.00
2023-01-10T05:26:29.396Z,95116.00
2023-01-10T05:27:29.384Z,95120.00
2023-01-10T05:28:29.343Z,95122.00
2023-01-10T05:29:29.330Z,95126.00
2023-01-10T05:30:29.297Z,95122.00
2023-01-10T05:31:29.313Z,95120.00
2023-01-10T05:32:29.264Z,95118.00
2023-01-10T05:33:29.249Z,95116.00
2023-01-10T05:34:29.216Z,95116.00
2023-01-10T05:35:29.191Z,95115.00
2023-01-10T05:36:29.165Z,95118.00
2023-01-10T05:37:29.142Z,95118.00
2023-01-10T05:38:29.114Z,95116.00
2023-01-10T05:39:29.107Z,95120.00
2023-01-10T05:40:29.084Z,95126.00
2023-01-10T05:41:29.060Z,95124.00
2023-01-10T05:42:29.031Z,95128.00
2023-01-10T05:43:29.034Z,95124.00
2023-01-10T05:44:28.998Z,95124.00
2023-01-10T05:45:28.973Z,95124.00
2023-01-10T05:46:28.959Z,95124.00
2023-01-10T05:47:28.938Z,95126.00
2023-01-10T05:48:28.927Z,95134.00
2023-01-10T05:49:28.914Z,95138.00
2023-01-10T05:50:28.885Z,95148.00
2023-01-10T05:51:28.877Z,95146.00
2023-01-10T05:52:29.683Z,95146.00
2023-01-10T05:53:28.825Z,95146.00
2023-01-10T05:54:28.791Z,95150.00
2023-01-10T05:55:28.774Z,95154.00
2023-01-10T05:56:28.768Z,95160.00
2023-01-10T05:57:28.745Z,95166.00
2023-01-10T05:58:28.720Z,95169.00
2023-01-10T05:59:28.899Z,95169.00
2023-01-10T06:00:28.666Z,95171.00
2023-01-10T06:01:28.726Z,95175.00
2023-01-10T06:02:28.703Z,95179.00
2023-01-10T06:03:28.612Z,95187.00
2023-01-10T06:04:28.576Z,95189.00
2023-01-10T06:05:28.561Z,95191.00
2023-01-10T06:06:28.546Z,95195.00
2023-01-10T06:07:28.516Z,95201.00
2023-01-10T06:08:28.489Z,95205.00
2023-01-10T06:09:28.461Z,95209.00
2023-01-10T06:10:28.443Z,95207.00
2023-01-10T06:11:28.420Z,95209.00
2023-01-10T06:12:28.398Z,95211.00
2023-01-10T06:13:28.380Z,95213.00
2023-01-10T06:14:28.356Z,95209.00
2023-01-10T06:15:28.343Z,95203.00
2023-01-10T06:16:28.292Z,95203.00
2023-01-10T06:17:28.264Z,95203.00
2023-01-10T06:18:28.236Z,95203.00
2023-01-10T06:19:28.224Z,95211.00
2023-01-10T06:20:28.199Z,95218.00
2023-01-10T06:21:28.202Z,95216.00
2023-01-10T06:22:28.127Z,95216.00
2023-01-10T06:23:28.113Z,95218.00
2023-01-10T06:24:28.092Z,95222.00
2023-01-10T06:25:28.203Z,95222.00
2023-01-10T06:26:28.072Z,95228.00
2023-01-10T06:27:28.034Z,95230.00
2023-01-10T06:28:28.108Z,95226.00
2023-01-10T06:29:27.965Z,95226.00
2023-01-10T06:30:28.221Z,95226.00
2023-01-10T06:31:28.048Z,95224.00
2023-01-10T06:32:27.911Z,95228.00
2023-01-10T06:33:27.893Z,95228.00
2023-01-10T06:34:27.858Z,95232.00
2023-01-10T06:35:27.856Z,95232.00
2023-01-10T06:36:27.822Z,95236.00
2023-01-10T06:37:28.211Z,95240.00
2023-01-10T06:38:27.776Z,95244.00
2023-01-10T06:39:27.747Z,95244.00
2023-01-10T06:40:27.714Z,95248.00
2023-01-10T06:41:27.694Z,95248.00
2023-01-10T06:42:27.731Z,95250.00
2023-01-10T06:43:27.644Z,95250.00
2023-01-10T06:44:27.649Z,95254.00
2023-01-10T06:45:27.586Z,95260.00
2023-01-10T06:46:27.564Z,95258.00
2023-01-10T06:47:27.737Z,95263.00
2023-01-10T06:48:27.530Z,95267.00
2023-01-10T06:49:27.523Z,95269.00
2023-01-10T06:50:27.495Z,95271.00
2023-01-10T06:51:27.500Z,95275.00
2023-01-10T06:52:27.726Z,95283.00
2023-01-10T06:53:27.430Z,95293.00
2023-01-10T06:54:27.421Z,95293.00
2023-01-10T06:55:28.451Z,95295.00
2023-01-10T06:56:27.348Z,95287.00
2023-01-10T06:57:27.723Z,95289.00
2023-01-10T06:58:27.303Z,95285.00
2023-01-10T06:59:27.268Z,95289.00
2023-01-10T07:00:27.238Z,95293.00
2023-01-10T07:01:27.303Z,95297.00
2023-01-10T07:02:27.295Z,95299.00
2023-01-10T07:03:27.296Z,95301.00
2023-01-10T07:04:27.196Z,95307.00
2023-01-10T07:05:27.157Z,95309.00
2023-01-10T07:06:27.101Z,95307.00
2023-01-10T07:07:27.116Z,95309.00
2023-01-10T07:08:27.215Z,95309.00
2023-01-10T07:09:27.116Z,95315.00
2023-01-10T07:10:27.219Z,95320.00
2023-01-10T07:11:26.974Z,95324.00
2023-01-10T07:12:26.924Z,95330.00
2023-01-10T07:13:26.904Z,95332.00
2023-01-10T07:14:30.105Z,95334.00
2023-01-10T07:15:27.213Z,95340.00
2023-01-10T07:16:26.893Z,95344.00
2023-01-10T07:17:26.790Z,95344.00
2023-01-10T07:18:26.759Z,95344.00
2023-01-10T07:19:26.747Z,95346.00
2023-01-10T07:20:26.755Z,95350.00
2023-01-10T07:21:26.665Z,95348.00
2023-01-10T07:22:26.738Z,95350.00
2023-01-10T07:23:26.610Z,95354.00
2023-01-10T07:24:26.732Z,95358.00
2023-01-10T07:25:26.552Z,95364.00
2023-01-10T07:26:26.518Z,95362.00
2023-01-10T07:27:26.726Z,95358.00
2023-01-10T07:28:26.448Z,95358.00
2023-01-10T07:29:26.416Z,95356.00
2023-01-10T07:30:26.374Z,95356.00
2023-01-10T07:31:26.456Z,95360.00
2023-01-10T07:32:26.727Z,95362.00
2023-01-10T07:33:26.260Z,95364.00
2023-01-10T07:34:26.209Z,95365.00
2023-01-10T07:35:26.222Z,95369.00
2023-01-10T07:36:26.141Z,95373.00
2023-01-10T07:37:26.257Z,95377.00
2023-01-10T07:38:26.069Z,95381.00
2023-01-10T07:39:26.028Z,95383.00
2023-01-10T07:40:25.991Z,95387.00
2023-01-10T07:41:25.958Z,95389.00
2023-01-10T07:42:26.303Z,95391.00
2023-01-10T07:43:25.923Z,95395.00
2023-01-10T07:44:26.238Z,95407.00
2023-01-10T07:45:25.813Z,95411.00
2023-01-10T07:46:25.811Z,95411.00
2023-01-10T07:47:25.736Z,95407.00
2023-01-10T07:48:25.704Z,95413.00
2023-01-10T07:49:26.700Z,95414.00
2023-01-10T07:50:25.660Z,95418.00
2023-01-10T07:51:25.696Z,95416.00
2023-01-10T07:52:25.742Z,95422.00
2023-01-10T07:53:25.651Z,95424.00
2023-01-10T07:54:25.658Z,95428.00
2023-01-10T07:55:25.661Z,95422.00
2023-01-10T07:56:25.667Z,95420.00
2023-01-10T07:57:25.733Z,95420.00
2023-01-10T07:58:25.698Z,95420.00
2023-01-10T07:59:25.702Z,95420.00
2023-01-10T08:00:25.716Z,95418.00
2023-01-10T08:01:25.804Z,95424.00
2023-01-10T08:02:25.932Z,95430.00
2023-01-10T08:03:25.932Z,95434.00
2023-01-10T08:04:25.759Z,95442.00
2023-01-10T08:05:25.759Z,95444.00
2023-01-10T08:06:25.784Z,95442.00
2023-01-10T08:07:26.264Z,95448.00
2023-01-10T08:08:25.786Z,95442.00
2023-01-10T08:09:26.239Z,95440.00
2023-01-10T08:10:26.330Z,95446.00
2023-01-10T08:11:25.807Z,95448.00
2023-01-10T08:12:27.741Z,95452.00
2023-01-10T08:13:25.801Z,95454.00
2023-01-10T08:14:26.319Z,95464.00
2023-01-10T08:15:25.797Z,95469.00
2023-01-10T08:16:25.899Z,95471.00
2023-01-10T08:17:25.779Z,95469.00
2023-01-10T08:18:27.272Z,95464.00
2023-01-10T08:19:25.761Z,95467.00
2023-01-10T08:20:25.749Z,95473.00
2023-01-10T08:21:25.746Z,95475.00
2023-01-10T08:22:28.926Z,95479.00
2023-01-10T08:23:25.683Z,95483.00
2023-01-10T08:24:25.669Z,95483.00
2023-01-10T08:25:25.665Z,95479.00
2023-01-10T08:26:25.742Z,95483.00
2023-01-10T08:27:25.626Z,95477.00
2023-01-10T08:28:25.609Z,95481.00
2023-01-10T08:29:25.601Z,95485.00
2023-01-10T08:30:25.587Z,95489.00
2023-01-10T08:31:25.878Z,95489.00
2023-01-10T08:32:25.555Z,95489.00
2023-01-10T08:33:25.574Z,95489.00
2023-01-10T08:34:25.505Z,95495.00
2023-01-10T08:35:25.489Z,95503.00
2023-01-10T08:36:25.741Z,95513.00
2023-01-10T08:37:25.467Z,95511.00
2023-01-10T08:38:25.458Z,95513.00
2023-01-10T08:39:25.814Z,95511.00
2023-01-10T08:40:25.400Z,95511.00
2023-01-10T08:41:25.368Z,95509.00
2023-01-10T08:42:25.348Z,95509.00
2023-01-10T08:43:25.317Z,95509.00
2023-01-10T08:44:25.749Z,95511.00
2023-01-10T08:45:25.286Z,95519.00
2023-01-10T08:46:25.765Z,95526.00
2023-01-10T08:47:25.247Z,95530.00
2023-01-10T08:48:25.235Z,95528.00
2023-01-10T08:49:25.240Z,95530.00
2023-01-10T08:50:25.214Z,95530.00
2023-01-10T08:51:25.262Z,95534.00
2023-01-10T08:52:25.176Z,95534.00
2023-01-10T08:53:25.153Z,95536.00
2023-01-10T08:54:25.175Z,95540.00
2023-01-10T08:55:25.121Z,95544.00
2023-01-10T08:56:25.260Z,95552.00
2023-01-10T08:57:25.033Z,95550.00
2023-01-10T08:58:25.036Z,95554.00
2023-01-10T08:59:25.016Z,95550.00
2023-01-10T09:00:24.954Z,95550.00
2023-01-10T09:01:25.497Z,95546.00
2023-01-10T09:02:24.925Z,95550.00
2023-01-10T09:03:25.372Z,95550.00
2023-01-10T09:04:24.856Z,95550.00
2023-01-10T09:05:28.608Z,95550.00
2023-01-10T09:06:25.297Z,95552.00
2023-01-10T09:07:25.034Z,95550.00
2023-01-10T09:08:24.754Z,95554.00
2023-01-10T09:09:24.792Z,95558.00
2023-01-10T09:10:24.671Z,95560.00
2023-01-10T09:11:24.650Z,95560.00
2023-01-10T09:12:24.576Z,95562.00
2023-01-10T09:13:24.553Z,95562.00
2023-01-10T09:14:24.556Z,95566.00
2023-01-10T09:15:24.528Z,95566.00
2023-01-10T09:16:24.517Z,95564.00
2023-01-10T09:17:24.766Z,95566.00
2023-01-10T09:18:24.447Z,95567.00
2023-01-10T09:19:24.765Z,95571.00
2023-01-10T09:20:24.372Z,95573.00
2023-01-10T09:21:24.355Z,95581.00
2023-01-10T09:22:24.297Z,95581.00
2023-01-10T09:23:24.257Z,95585.00
2023-01-10T09:24:24.280Z,95591.00
2023-01-10T09:25:24.246Z,95593.00
2023-01-10T09:26:24.201Z,95589.00
2023-01-10T09:27:24.142Z,95585.00
2023-01-10T09:28:24.133Z,95583.00
2023-01-10T09:29:24.078Z,95585.00
2023-01-10T09:30:24.035Z,95595.00
2023-01-10T09:31:24.126Z,95603.00
2023-01-10T09:32:24.266Z,95601.00
2023-01-10T09:33:24.005Z,95601.00
2023-01-10T09:34:23.889Z,95609.00
2023-01-10T09:35:24.273Z,95603.00
2023-01-10T09:36:23.820Z,95611.00
2023-01-10T09:37:23.765Z,95613.00
2023-01-10T09:38:23.865Z,95609.00
2023-01-10T09:39:24.654Z,95609.00
2023-01-10T09:40:23.629Z,95609.00
2023-01-10T09:41:23.610Z,95613.00
2023-01-10T09:42:23.568Z,95616.00
2023-01-10T09:43:23.801Z,95620.00
2023-01-10T09:44:23.814Z,95622.00
2023-01-10T09:45:23.442Z,95624.00
2023-01-10T09:46:23.483Z,95624.00
2023-01-10T09:47:23.505Z,95622.00
2023-01-10T09:48:23.363Z,95618.00
2023-01-10T09:49:23.304Z,95622.00
2023-01-10T09:50:23.253Z,95626.00
2023-01-10T09:51:23.243Z,95626.00
2023-01-10T09:52:23.196Z,95622.00
2023-01-10T09:53:23.285Z,95624.00
2023-01-10T09:54:23.435Z,95620.00
2023-01-10T09:55:23.088Z,95620.00
2023-01-10T09:56:23.115Z,95624.00
2023-01-10T09:57:23.091Z,95624.00
2023-01-10T09:58:23.080Z,95622.00
2023-01-10T09:59:23.655Z,95622.00
2023-01-10T10:00:22.934Z,95624.00
2023-01-10T10:01:22.991Z,95624.00
2023-01-10T10:02:23.034Z,95626.00
2023-01-10T10:03:22.894Z,95628.00
2023-01-10T10:04:23.114Z,95630.00
2023-01-10T10:05:22.883Z,95632.00
2023-01-10T10:06:22.840Z,95630.00
2023-01-10T10:07:22.811Z,95628.00
2023-01-10T10:08:22.705Z,95628.00
2023-01-10T10:09:22.656Z,95626.00
2023-01-10T10:10:22.888Z,95634.00
2023-01-10T10:11:22.588Z,95636.00
2023-01-10T10:12:22.570Z,95634.00
2023-01-10T10:13:27.501Z,95634.00
2023-01-10T10:14:22.492Z,95634.00
2023-01-10T10:15:22.783Z,95636.00
2023-01-10T10:16:22.380Z,95642.00
2023-01-10T10:17:22.225Z,95640.00
2023-01-10T10:18:22.190Z,95640.00
2023-01-10T10:19:22.172Z,95642.00
2023-01-10T10:20:22.293Z,95644.00
2023-01-10T10:21:22.067Z,95646.00
2023-01-10T10:22:22.039Z,95660.00
2023-01-10T10:23:21.999Z,95652.00
2023-01-10T10:24:21.955Z,95648.00
2023-01-10T10:25:22.328Z,95646.00
2023-01-10T10:26:21.932Z,95648.00
2023-01-10T10:27:21.945Z,95652.00
2023-01-10T10:28:21.829Z,95664.00
2023-01-10T10:29:21.949Z,95660.00
2023-01-10T10:30:23.346Z,95662.00
2023-01-10T10:31:21.975Z,95660.00
2023-01-10T10:32:21.841Z,95644.00
2023-01-10T10:33:21.806Z,95642.00
2023-01-10T10:34:21.742Z,95646.00
2023-01-10T10:35:21.885Z,95650.00
2023-01-10T10:36:22.165Z,95660.00
2023-01-10T10:37:21.732Z,95652.00
2023-01-10T10:38:21.799Z,95660.00
2023-01-10T10:39:21.590Z,95660.00
2023-01-10T10:40:21.651Z,95660.00
2023-01-10T10:41:21.490Z,95652.00
2023-01-10T10:42:21.439Z,95652.00
2023-01-10T10:43:22.054Z,95652.00
2023-01-10T10:44:21.383Z,95660.00
2023-01-10T10:45:23.432Z,95664.00
2023-01-10T10:46:21.304Z,95667.00
2023-01-10T10:47:21.257Z,95667.00
2023-01-10T10:48:21.311Z,95669.00
2023-01-10T10:49:21.188Z,95664.00
2023-01-10T10:50:21.144Z,95664.00
2023-01-10T10:51:21.182Z,95660.00
2023-01-10T10:52:21.313Z,95650.00
2023-01-10T10:53:21.008Z,95648.00
2023-01-10T10:54:20.978Z,95642.00
2023-01-10T10:55:20.953Z,95646.00
2023-01-10T10:56:20.935Z,95650.00
2023-01-10T10:57:20.890Z,95646.00
2023-01-10T10:58:20.887Z,95660.00
2023-01-10T10:59:20.886Z,95660.00
2023-01-10T11:00:20.819Z,95664.00
2023-01-10T11:01:20.991Z,95666.00
2023-01-10T11:02:20.802Z,95664.00
2023-01-10T11:03:20.744Z,95666.00
2023-01-10T11:04:20.732Z,95664.00
2023-01-10T11:05:20.959Z,95662.00
2023-01-10T11:06:20.698Z,95660.00
2023-01-10T11:07:20.805Z,95660.00
2023-01-10T11:08:20.621Z,95664.00
2023-01-10T11:09:20.583Z,95667.00
2023-01-10T11:10:20.552Z,95673.00
2023-01-10T11:11:20.525Z,95673.00
2023-01-10T11:12:20.804Z,95671.00
2023-01-10T11:13:20.455Z,95667.00
2023-01-10T11:14:20.420Z,95669.00
2023-01-10T11:15:20.400Z,95673.00
2023-01-10T11:16:20.399Z,95681.00
2023-01-10T11:17:20.317Z,95685.00
2023-01-10T11:18:20.307Z,95689.00
2023-01-10T11:19:20.267Z,95687.00
2023-01-10T11:20:20.364Z,95689.00
2023-01-10T11:21:22.093Z,95689.00
2023-01-10T11:22:20.207Z,95689.00
2023-01-10T11:23:20.195Z,95689.00
2023-01-10T11:24:20.185Z,95681.00
2023-01-10T11:25:20.407Z,95677.00
2023-01-10T11:26:20.167Z,95673.00
2023-01-10T11:27:20.178Z,95671.00
2023-01-10T11:28:20.147Z,95677.00
2023-01-10T11:29:20.127Z,95675.00
2023-01-10T11:30:20.336Z,95669.00
2023-01-10T11:31:20.349Z,95666.00
2023-01-10T11:32:20.111Z,95673.00
2023-01-10T11:33:20.601Z,95679.00
2023-01-10T11:34:20.349Z,95666.00
2023-01-10T11:35:20.171Z,95664.00
2023-01-10T11:36:20.038Z,95667.00
2023-01-10T11:37:20.317Z,95662.00
2023-01-10T11:38:19.987Z,95642.00
2023-01-10T11:39:20.315Z,95646.00
2023-01-10T11:40:19.926Z,95667.00
2023-01-10T11:41:19.905Z,95660.00
2023-01-10T11:42:19.903Z,95646.00
2023-01-10T11:43:20.270Z,95662.00
2023-01-10T11:44:20.818Z,95679.00
2023-01-10T11:45:20.836Z,95664.00
2023-01-10T11:46:19.853Z,95660.00
2023-01-10T11:47:19.704Z,95671.00
2023-01-10T11:48:20.280Z,95673.00
2023-01-10T11:49:19.856Z,95666.00
2023-01-10T11:50:19.777Z,95667.00
2023-01-10T11:51:19.567Z,95677.00
2023-01-10T11:52:19.840Z,95685.00
2023-01-10T11:53:19.502Z,95679.00
2023-01-10T11:54:19.455Z,95685.00
2023-01-10T11:55:19.491Z,95695.00
2023-01-10T11:56:19.391Z,95689.00
2023-01-10T11:57:19.825Z,95685.00
2023-01-10T11:58:19.330Z,95685.00
2023-01-10T11:59:19.295Z,95683.00
2023-01-10T12:00:19.292Z,95683.00
2023-01-10T12:01:19.280Z,95687.00
2023-01-10T12:02:19.364Z,95689.00
2023-01-10T12:03:19.204Z,95687.00
2023-01-10T12:04:19.154Z,95689.00
2023-01-10T12:05:19.196Z,95693.00
2023-01-10T12:06:19.092Z,95693.00
2023-01-10T12:07:19.323Z,95685.00
2023-01-10T12:08:18.988Z,95677.00
2023-01-10T12:09:19.327Z,95679.00
2023-01-10T12:10:21.011Z,95677.00
2023-01-10T12:11:18.879Z,95673.00
2023-01-10T12:12:19.325Z,95675.00
2023-01-10T12:13:18.801Z,95677.00
2023-01-10T12:14:19.066Z,95677.00
2023-01-10T12:15:18.721Z,95677.00
2023-01-10T12:16:18.787Z,95673.00
2023-01-10T12:17:18.831Z,95673.00
2023-01-10T12:18:18.621Z,95675.00
2023-01-10T12:19:18.619Z,95675.00
2023-01-10T12:20:18.561Z,95677.00
2023-01-10T12:21:18.547Z,95681.00
2023-01-10T12:22:18.855Z,95683.00
2023-01-10T12:23:18.503Z,95681.00
2023-01-10T12:24:18.468Z,95683.00
2023-01-10T12:25:18.450Z,95683.00
2023-01-10T12:26:18.409Z,95683.00
2023-01-10T12:27:18.834Z,95685.00
2023-01-10T12:28:18.358Z,95687.00
2023-01-10T12:29:18.314Z,95687.00
2023-01-10T12:30:18.287Z,95689.00
2023-01-10T12:31:18.335Z,95687.00
2023-01-10T12:32:18.225Z,95691.00
2023-01-10T12:33:18.335Z,95693.00